sensor_id;sensor_type;location;lat;lon;timestamp;temperature;humidity
15357;DHT22;7778;48.792;9.260;2023-05-20T00:00:59;12.40;99.90
15357;DHT22;7778;48.792;9.260;2023-05-20T00:03:45;12.40;99.90
15357;DHT22;7778;48.792;9.260;2023-05-20T00:06:32;12.50;99.90
15357;DHT22;7778;48.792;9.260;2023-05-20T00:09:18;12.50;99.90
15357;DHT22;7778;48.792;9.260;2023-05-20T00:12:04;12.50;99.90
15357;DHT22;7778;48.792;9.260;2023-05-20T00:14:50;12.50;99.90
15357;DHT22;7778;48.792;9.260;2023-05-20T00:17:35;12.40;99.90
15357;DHT22;7778;48.792;9.260;2023-05-20T00:20:21;12.40;99.90
15357;DHT22;7778;48.792;9.260;2023-05-20T00:23:08;12.50;99.90
15357;DHT22;7778;48.792;9.260;2023-05-20T00:25:54;12.40;99.90
15357;DHT22;7778;48.792;9.260;2023-05-20T00:28:39;12.50;99.90
15357;DHT22;7778;48.792;9.260;2023-05-20T00:31:25;12.50;99.90
15357;DHT22;7778;48.792;9.260;2023-05-20T00:34:10;12.50;99.90
15357;DHT22;7778;48.792;9.260;2023-05-20T00:36:56;12.40;99.90
15357;DHT22;7778;48.792;9.260;2023-05-20T00:39:43;12.50;99.90
15357;DHT22;7778;48.792;9.260;2023-05-20T00:42:28;12.40;99.90
15357;DHT22;7778;48.792;9.260;2023-05-20T00:45:14;12.40;99.90
15357;DHT22;7778;48.792;9.260;2023-05-20T00:48:00;12.40;99.90
15357;DHT22;7778;48.792;9.260;2023-05-20T00:50:47;12.40;99.90
15357;DHT22;7778;48.792;9.260;2023-05-20T00:53:33;12.40;99.90
15357;DHT22;7778;48.792;9.260;2023-05-20T00:56:22;12.40;99.90
15357;DHT22;7778;48.792;9.260;2023-05-20T00:59:07;12.40;99.90
15357;DHT22;7778;48.792;9.260;2023-05-20T01:01:53;12.40;99.90
15357;DHT22;7778;48.792;9.260;2023-05-20T01:04:40;12.50;99.90
15357;DHT22;7778;48.792;9.260;2023-05-20T01:07:29;12.50;99.90
15357;DHT22;7778;48.792;9.260;2023-05-20T01:10:15;12.40;99.90
15357;DHT22;7778;48.792;9.260;2023-05-20T01:13:06;12.40;99.90
15357;DHT22;7778;48.792;9.260;2023-05-20T01:15:54;12.40;99.90
15357;DHT22;7778;48.792;9.260;2023-05-20T01:18:41;12.50;99.90
15357;DHT22;7778;48.792;9.260;2023-05-20T01:21:29;12.50;99.90
15357;DHT22;7778;48.792;9.260;2023-05-20T01:24:16;12.50;99.90
15357;DHT22;7778;48.792;9.260;2023-05-20T01:27:02;12.50;99.90
15357;DHT22;7778;48.792;9.260;2023-05-20T01:29:49;12.50;99.90
15357;DHT22;7778;48.792;9.260;2023-05-20T01:32:37;12.50;99.90
15357;DHT22;7778;48.792;9.260;2023-05-20T01:35:24;12.50;99.90
15357;DHT22;7778;48.792;9.260;2023-05-20T01:38:10;12.50;99.90
15357;DHT22;7778;48.792;9.260;2023-05-20T01:40:57;12.40;99.90
15357;DHT22;7778;48.792;9.260;2023-05-20T01:43:44;12.40;99.90
15357;DHT22;7778;48.792;9.260;2023-05-20T01:46:31;12.40;99.90
15357;DHT22;7778;48.792;9.260;2023-05-20T01:49:17;12.40;99.90
15357;DHT22;7778;48.792;9.260;2023-05-20T01:52:03;12.30;99.90
15357;DHT22;7778;48.792;9.260;2023-05-20T01:54:49;12.30;99.90
15357;DHT22;7778;48.792;9.260;2023-05-20T01:57:36;12.20;99.90
15357;DHT22;7778;48.792;9.260;2023-05-20T02:00:22;12.20;99.90
15357;DHT22;7778;48.792;9.260;2023-05-20T02:03:08;12.10;99.90
15357;DHT22;7778;48.792;9.260;2023-05-20T02:05:54;12.10;99.90
15357;DHT22;7778;48.792;9.260;2023-05-20T02:08:39;12.00;99.90
15357;DHT22;7778;48.792;9.260;2023-05-20T02:11:25;12.00;99.90
15357;DHT22;7778;48.792;9.260;2023-05-20T02:14:12;12.00;99.90
15357;DHT22;7778;48.792;9.260;2023-05-20T02:16:57;12.10;99.90
15357;DHT22;7778;48.792;9.260;2023-05-20T02:19:44;11.90;99.90
15357;DHT22;7778;48.792;9.260;2023-05-20T02:22:30;11.90;99.90
15357;DHT22;7778;48.792;9.260;2023-05-20T02:25:15;11.90;99.90
15357;DHT22;7778;48.792;9.260;2023-05-20T02:28:01;11.80;99.90
15357;DHT22;7778;48.792;9.260;2023-05-20T02:30:50;11.80;99.90
15357;DHT22;7778;48.792;9.260;2023-05-20T02:33:35;11.80;99.90
15357;DHT22;7778;48.792;9.260;2023-05-20T02:36:21;11.80;99.90
15357;DHT22;7778;48.792;9.260;2023-05-20T02:39:06;11.70;99.90
15357;DHT22;7778;48.792;9.260;2023-05-20T02:41:51;11.70;99.90
15357;DHT22;7778;48.792;9.260;2023-05-20T02:44:37;11.70;99.90
15357;DHT22;7778;48.792;9.260;2023-05-20T02:47:24;11.70;99.90
15357;DHT22;7778;48.792;9.260;2023-05-20T02:50:10;11.60;99.90
15357;DHT22;7778;48.792;9.260;2023-05-20T02:52:55;11.60;99.90
15357;DHT22;7778;48.792;9.260;2023-05-20T02:55:41;11.60;99.90
15357;DHT22;7778;48.792;9.260;2023-05-20T02:58:28;11.60;99.90
15357;DHT22;7778;48.792;9.260;2023-05-20T03:01:13;11.60;99.90
15357;DHT22;7778;48.792;9.260;2023-05-20T03:04:00;11.80;99.90
15357;DHT22;7778;48.792;9.260;2023-05-20T03:06:46;11.60;99.90
15357;DHT22;7778;48.792;9.260;2023-05-20T03:09:32;11.60;99.90
15357;DHT22;7778;48.792;9.260;2023-05-20T03:12:17;11.60;99.90
15357;DHT22;7778;48.792;9.260;2023-05-20T03:15:03;11.60;99.90
15357;DHT22;7778;48.792;9.260;2023-05-20T03:17:49;11.60;99.90
15357;DHT22;7778;48.792;9.260;2023-05-20T03:20:36;11.60;99.90
15357;DHT22;7778;48.792;9.260;2023-05-20T03:23:22;11.50;99.90
15357;DHT22;7778;48.792;9.260;2023-05-20T03:26:07;11.40;99.90
15357;DHT22;7778;48.792;9.260;2023-05-20T03:28:53;11.40;99.90
15357;DHT22;7778;48.792;9.260;2023-05-20T03:31:38;11.40;99.90
15357;DHT22;7778;48.792;9.260;2023-05-20T03:34:24;11.30;99.90
15357;DHT22;7778;48.792;9.260;2023-05-20T03:37:12;11.30;99.90
15357;DHT22;7778;48.792;9.260;2023-05-20T03:39:58;11.30;99.90
15357;DHT22;7778;48.792;9.260;2023-05-20T03:42:43;11.30;99.90
15357;DHT22;7778;48.792;9.260;2023-05-20T03:45:29;11.30;99.90
15357;DHT22;7778;48.792;9.260;2023-05-20T03:48:14;11.30;99.90
15357;DHT22;7778;48.792;9.260;2023-05-20T03:50:59;11.30;99.90
15357;DHT22;7778;48.792;9.260;2023-05-20T03:53:47;11.30;99.90
15357;DHT22;7778;48.792;9.260;2023-05-20T03:56:33;11.30;99.90
15357;DHT22;7778;48.792;9.260;2023-05-20T03:59:19;11.30;99.90
15357;DHT22;7778;48.792;9.260;2023-05-20T04:02:05;11.30;99.90
15357;DHT22;7778;48.792;9.260;2023-05-20T04:04:51;11.50;99.90
15357;DHT22;7778;48.792;9.260;2023-05-20T04:07:40;11.50;99.90
15357;DHT22;7778;48.792;9.260;2023-05-20T04:10:27;11.50;99.90
15357;DHT22;7778;48.792;9.260;2023-05-20T04:13:15;11.50;99.90
15357;DHT22;7778;48.792;9.260;2023-05-20T04:16:01;11.60;99.90
15357;DHT22;7778;48.792;9.260;2023-05-20T04:18:46;11.70;99.90
15357;DHT22;7778;48.792;9.260;2023-05-20T04:21:32;11.70;99.90
15357;DHT22;7778;48.792;9.260;2023-05-20T04:24:17;11.80;99.90
15357;DHT22;7778;48.792;9.260;2023-05-20T04:27:09;11.90;99.90
15357;DHT22;7778;48.792;9.260;2023-05-20T04:29:54;11.90;99.90
15357;DHT22;7778;48.792;9.260;2023-05-20T04:32:42;11.90;99.90
15357;DHT22;7778;48.792;9.260;2023-05-20T04:35:27;11.90;99.90
15357;DHT22;7778;48.792;9.260;2023-05-20T04:38:13;11.90;99.90
15357;DHT22;7778;48.792;9.260;2023-05-20T04:40:59;12.10;99.90
15357;DHT22;7778;48.792;9.260;2023-05-20T04:43:48;12.00;99.90
15357;DHT22;7778;48.792;9.260;2023-05-20T04:46:34;12.10;99.90
15357;DHT22;7778;48.792;9.260;2023-05-20T04:49:20;12.20;99.90
15357;DHT22;7778;48.792;9.260;2023-05-20T04:52:05;12.30;99.90
15357;DHT22;7778;48.792;9.260;2023-05-20T04:54:51;12.50;99.90
15357;DHT22;7778;48.792;9.260;2023-05-20T04:57:40;12.70;99.90
15357;DHT22;7778;48.792;9.260;2023-05-20T05:00:28;12.80;99.90
15357;DHT22;7778;48.792;9.260;2023-05-20T05:03:13;13.00;99.90
15357;DHT22;7778;48.792;9.260;2023-05-20T05:05:59;13.10;99.90
15357;DHT22;7778;48.792;9.260;2023-05-20T05:08:44;13.30;99.90
15357;DHT22;7778;48.792;9.260;2023-05-20T05:11:30;13.30;99.90
15357;DHT22;7778;48.792;9.260;2023-05-20T05:14:16;13.40;99.90
15357;DHT22;7778;48.792;9.260;2023-05-20T05:17:03;13.40;99.90
15357;DHT22;7778;48.792;9.260;2023-05-20T05:19:48;13.40;99.90
15357;DHT22;7778;48.792;9.260;2023-05-20T05:22:34;13.50;99.90
15357;DHT22;7778;48.792;9.260;2023-05-20T05:25:22;13.50;99.90
15357;DHT22;7778;48.792;9.260;2023-05-20T05:28:08;13.70;99.90
15357;DHT22;7778;48.792;9.260;2023-05-20T05:30:54;14.00;99.90
15357;DHT22;7778;48.792;9.260;2023-05-20T05:33:41;14.10;99.90
15357;DHT22;7778;48.792;9.260;2023-05-20T05:36:26;14.20;99.90
15357;DHT22;7778;48.792;9.260;2023-05-20T05:39:12;14.00;99.90
15357;DHT22;7778;48.792;9.260;2023-05-20T05:41:57;14.10;99.90
15357;DHT22;7778;48.792;9.260;2023-05-20T05:44:43;14.30;99.90
15357;DHT22;7778;48.792;9.260;2023-05-20T05:47:28;14.40;99.90
15357;DHT22;7778;48.792;9.260;2023-05-20T05:50:17;14.60;99.90
15357;DHT22;7778;48.792;9.260;2023-05-20T05:53:02;14.80;99.90
15357;DHT22;7778;48.792;9.260;2023-05-20T05:55:48;15.10;99.90
15357;DHT22;7778;48.792;9.260;2023-05-20T05:58:33;15.30;99.90
15357;DHT22;7778;48.792;9.260;2023-05-20T06:01:19;15.90;99.90
15357;DHT22;7778;48.792;9.260;2023-05-20T06:04:04;17.40;99.90
15357;DHT22;7778;48.792;9.260;2023-05-20T06:06:51;18.10;99.90
15357;DHT22;7778;48.792;9.260;2023-05-20T06:09:37;18.10;99.90
15357;DHT22;7778;48.792;9.260;2023-05-20T06:12:23;17.50;99.90
15357;DHT22;7778;48.792;9.260;2023-05-20T06:15:09;17.30;99.90
15357;DHT22;7778;48.792;9.260;2023-05-20T06:17:55;17.90;99.90
15357;DHT22;7778;48.792;9.260;2023-05-20T06:20:41;18.10;99.90
15357;DHT22;7778;48.792;9.260;2023-05-20T06:23:28;19.00;99.90
15357;DHT22;7778;48.792;9.260;2023-05-20T06:26:13;19.60;99.90
15357;DHT22;7778;48.792;9.260;2023-05-20T06:28:59;20.10;99.90
15357;DHT22;7778;48.792;9.260;2023-05-20T06:31:44;21.00;99.90
15357;DHT22;7778;48.792;9.260;2023-05-20T06:34:30;21.90;99.90
15357;DHT22;7778;48.792;9.260;2023-05-20T06:37:17;21.70;99.90
15357;DHT22;7778;48.792;9.260;2023-05-20T06:40:06;21.30;99.90
15357;DHT22;7778;48.792;9.260;2023-05-20T06:42:52;20.50;99.90
15357;DHT22;7778;48.792;9.260;2023-05-20T06:45:38;19.50;99.90
15357;DHT22;7778;48.792;9.260;2023-05-20T06:48:23;20.90;99.90
15357;DHT22;7778;48.792;9.260;2023-05-20T06:51:09;21.90;99.90
15357;DHT22;7778;48.792;9.260;2023-05-20T06:53:55;21.80;99.90
15357;DHT22;7778;48.792;9.260;2023-05-20T06:56:41;22.30;99.90
15357;DHT22;7778;48.792;9.260;2023-05-20T06:59:27;22.10;99.90
15357;DHT22;7778;48.792;9.260;2023-05-20T07:02:13;21.70;99.90
15357;DHT22;7778;48.792;9.260;2023-05-20T07:04:58;20.00;99.90
15357;DHT22;7778;48.792;9.260;2023-05-20T07:07:44;18.90;99.90
15357;DHT22;7778;48.792;9.260;2023-05-20T07:10:29;18.40;99.90
15357;DHT22;7778;48.792;9.260;2023-05-20T07:13:16;18.30;99.90
15357;DHT22;7778;48.792;9.260;2023-05-20T07:16:02;18.30;99.90
15357;DHT22;7778;48.792;9.260;2023-05-20T07:18:48;19.00;99.90
15357;DHT22;7778;48.792;9.260;2023-05-20T07:21:33;18.70;99.90
15357;DHT22;7778;48.792;9.260;2023-05-20T07:24:19;19.00;99.90
15357;DHT22;7778;48.792;9.260;2023-05-20T07:27:04;19.70;99.90
15357;DHT22;7778;48.792;9.260;2023-05-20T07:29:52;20.90;99.90
15357;DHT22;7778;48.792;9.260;2023-05-20T07:32:37;22.80;99.90
15357;DHT22;7778;48.792;9.260;2023-05-20T07:35:23;22.10;99.90
15357;DHT22;7778;48.792;9.260;2023-05-20T07:38:09;22.10;99.90
15357;DHT22;7778;48.792;9.260;2023-05-20T07:40:55;22.50;99.90
15357;DHT22;7778;48.792;9.260;2023-05-20T07:43:41;23.40;99.90
15357;DHT22;7778;48.792;9.260;2023-05-20T07:46:28;23.70;99.90
15357;DHT22;7778;48.792;9.260;2023-05-20T07:49:13;23.60;99.90
15357;DHT22;7778;48.792;9.260;2023-05-20T07:51:59;23.30;99.90
15357;DHT22;7778;48.792;9.260;2023-05-20T07:54:45;24.30;99.90
15357;DHT22;7778;48.792;9.260;2023-05-20T07:57:30;23.00;99.90
15357;DHT22;7778;48.792;9.260;2023-05-20T08:00:16;21.60;99.90
15357;DHT22;7778;48.792;9.260;2023-05-20T08:03:04;20.60;99.90
15357;DHT22;7778;48.792;9.260;2023-05-20T08:05:50;19.50;99.90
15357;DHT22;7778;48.792;9.260;2023-05-20T08:08:37;19.10;99.90
15357;DHT22;7778;48.792;9.260;2023-05-20T08:11:24;19.40;99.90
15357;DHT22;7778;48.792;9.260;2023-05-20T08:14:09;19.60;99.90
15357;DHT22;7778;48.792;9.260;2023-05-20T08:16:55;19.70;99.90
15357;DHT22;7778;48.792;9.260;2023-05-20T08:19:42;19.60;99.90
15357;DHT22;7778;48.792;9.260;2023-05-20T08:22:28;19.40;99.90
15357;DHT22;7778;48.792;9.260;2023-05-20T08:25:14;19.60;99.90
15357;DHT22;7778;48.792;9.260;2023-05-20T08:28:00;20.00;99.90
15357;DHT22;7778;48.792;9.260;2023-05-20T08:30:48;19.50;99.90
15357;DHT22;7778;48.792;9.260;2023-05-20T08:33:35;19.40;99.90
15357;DHT22;7778;48.792;9.260;2023-05-20T08:36:22;19.90;99.90
15357;DHT22;7778;48.792;9.260;2023-05-20T08:39:08;19.80;99.90
15357;DHT22;7778;48.792;9.260;2023-05-20T08:41:53;19.60;99.90
15357;DHT22;7778;48.792;9.260;2023-05-20T08:44:40;19.60;99.90
15357;DHT22;7778;48.792;9.260;2023-05-20T08:47:25;19.60;99.90
15357;DHT22;7778;48.792;9.260;2023-05-20T08:50:12;19.40;99.90
15357;DHT22;7778;48.792;9.260;2023-05-20T08:52:59;19.50;99.90
15357;DHT22;7778;48.792;9.260;2023-05-20T08:55:52;20.60;99.90
15357;DHT22;7778;48.792;9.260;2023-05-20T08:58:40;22.30;99.90
15357;DHT22;7778;48.792;9.260;2023-05-20T09:01:27;22.30;99.90
15357;DHT22;7778;48.792;9.260;2023-05-20T09:04:12;23.60;99.90
15357;DHT22;7778;48.792;9.260;2023-05-20T09:06:58;24.70;99.90
15357;DHT22;7778;48.792;9.260;2023-05-20T09:09:45;26.20;99.90
15357;DHT22;7778;48.792;9.260;2023-05-20T09:12:30;27.50;99.90
15357;DHT22;7778;48.792;9.260;2023-05-20T09:15:16;26.30;99.90
15357;DHT22;7778;48.792;9.260;2023-05-20T09:18:05;25.10;99.90
15357;DHT22;7778;48.792;9.260;2023-05-20T09:20:51;24.40;99.90
15357;DHT22;7778;48.792;9.260;2023-05-20T09:23:37;23.80;99.90
15357;DHT22;7778;48.792;9.260;2023-05-20T09:26:26;23.30;99.90
15357;DHT22;7778;48.792;9.260;2023-05-20T09:29:12;22.40;99.90
15357;DHT22;7778;48.792;9.260;2023-05-20T09:32:00;22.10;99.90
15357;DHT22;7778;48.792;9.260;2023-05-20T09:34:47;21.90;99.90
15357;DHT22;7778;48.792;9.260;2023-05-20T09:37:33;21.90;99.90
15357;DHT22;7778;48.792;9.260;2023-05-20T09:40:22;22.00;99.90
15357;DHT22;7778;48.792;9.260;2023-05-20T09:43:10;22.10;99.90
15357;DHT22;7778;48.792;9.260;2023-05-20T09:45:56;22.30;99.90
15357;DHT22;7778;48.792;9.260;2023-05-20T09:48:44;22.50;99.90
15357;DHT22;7778;48.792;9.260;2023-05-20T09:51:30;22.90;99.90
15357;DHT22;7778;48.792;9.260;2023-05-20T09:54:17;23.40;99.90
15357;DHT22;7778;48.792;9.260;2023-05-20T09:57:04;25.60;99.90
15357;DHT22;7778;48.792;9.260;2023-05-20T09:59:53;27.30;99.90
15357;DHT22;7778;48.792;9.260;2023-05-20T10:02:41;28.50;99.90
15357;DHT22;7778;48.792;9.260;2023-05-20T10:05:30;27.10;99.90
15357;DHT22;7778;48.792;9.260;2023-05-20T10:11:47;26.70;99.90
15357;DHT22;7778;48.792;9.260;2023-05-20T10:14:48;28.10;99.90
15357;DHT22;7778;48.792;9.260;2023-05-20T10:17:45;27.10;99.90
15357;DHT22;7778;48.792;9.260;2023-05-20T10:20:44;24.90;99.90
15357;DHT22;7778;48.792;9.260;2023-05-20T10:23:31;24.10;99.90
15357;DHT22;7778;48.792;9.260;2023-05-20T10:26:17;24.20;99.90
15357;DHT22;7778;48.792;9.260;2023-05-20T10:29:14;23.60;99.90
15357;DHT22;7778;48.792;9.260;2023-05-20T10:32:00;24.00;99.90
15357;DHT22;7778;48.792;9.260;2023-05-20T10:34:49;23.70;99.90
15357;DHT22;7778;48.792;9.260;2023-05-20T10:37:40;23.30;99.90
15357;DHT22;7778;48.792;9.260;2023-05-20T10:40:27;23.50;99.90
15357;DHT22;7778;48.792;9.260;2023-05-20T10:43:14;24.50;99.90
15357;DHT22;7778;48.792;9.260;2023-05-20T10:46:01;25.10;99.90
15357;DHT22;7778;48.792;9.260;2023-05-20T10:48:47;25.40;99.90
15357;DHT22;7778;48.792;9.260;2023-05-20T10:51:35;24.60;99.90
15357;DHT22;7778;48.792;9.260;2023-05-20T10:54:21;24.10;99.90
15357;DHT22;7778;48.792;9.260;2023-05-20T10:57:07;23.70;99.90
15357;DHT22;7778;48.792;9.260;2023-05-20T10:59:54;24.10;99.90
15357;DHT22;7778;48.792;9.260;2023-05-20T11:02:40;24.50;99.90
15357;DHT22;7778;48.792;9.260;2023-05-20T11:05:26;24.70;99.90
15357;DHT22;7778;48.792;9.260;2023-05-20T11:08:14;24.70;99.90
15357;DHT22;7778;48.792;9.260;2023-05-20T11:10:59;24.60;99.90
15357;DHT22;7778;48.792;9.260;2023-05-20T11:13:49;24.50;99.90
15357;DHT22;7778;48.792;9.260;2023-05-20T11:16:35;23.90;99.90
15357;DHT22;7778;48.792;9.260;2023-05-20T11:19:21;23.50;99.90
15357;DHT22;7778;48.792;9.260;2023-05-20T11:22:07;23.80;99.90
15357;DHT22;7778;48.792;9.260;2023-05-20T11:24:54;24.00;99.90
15357;DHT22;7778;48.792;9.260;2023-05-20T11:27:39;24.20;99.90
15357;DHT22;7778;48.792;9.260;2023-05-20T11:30:25;24.00;99.90
15357;DHT22;7778;48.792;9.260;2023-05-20T11:33:12;24.00;99.90
15357;DHT22;7778;48.792;9.260;2023-05-20T11:35:59;24.30;99.90
15357;DHT22;7778;48.792;9.260;2023-05-20T11:38:46;24.40;99.90
15357;DHT22;7778;48.792;9.260;2023-05-20T11:41:34;24.10;99.90
15357;DHT22;7778;48.792;9.260;2023-05-20T11:44:19;24.40;99.90
15357;DHT22;7778;48.792;9.260;2023-05-20T11:47:05;24.40;99.90
15357;DHT22;7778;48.792;9.260;2023-05-20T11:49:51;24.20;99.90
15357;DHT22;7778;48.792;9.260;2023-05-20T11:52:36;24.20;99.90
15357;DHT22;7778;48.792;9.260;2023-05-20T11:55:22;24.20;99.90
15357;DHT22;7778;48.792;9.260;2023-05-20T11:58:09;24.00;99.90
15357;DHT22;7778;48.792;9.260;2023-05-20T12:00:54;23.90;99.90
15357;DHT22;7778;48.792;9.260;2023-05-20T12:03:40;23.70;99.90
15357;DHT22;7778;48.792;9.260;2023-05-20T12:06:26;23.60;99.90
15357;DHT22;7778;48.792;9.260;2023-05-20T12:09:12;23.60;99.90
15357;DHT22;7778;48.792;9.260;2023-05-20T12:11:57;23.80;99.90
15357;DHT22;7778;48.792;9.260;2023-05-20T12:14:44;23.70;99.90
15357;DHT22;7778;48.792;9.260;2023-05-20T12:17:31;23.80;99.90
15357;DHT22;7778;48.792;9.260;2023-05-20T12:20:22;24.10;99.90
15357;DHT22;7778;48.792;9.260;2023-05-20T12:23:09;24.10;99.90
15357;DHT22;7778;48.792;9.260;2023-05-20T12:25:54;24.40;99.90
15357;DHT22;7778;48.792;9.260;2023-05-20T12:28:40;25.00;99.90
15357;DHT22;7778;48.792;9.260;2023-05-20T12:31:27;25.40;99.90
15357;DHT22;7778;48.792;9.260;2023-05-20T12:34:13;25.30;99.90
15357;DHT22;7778;48.792;9.260;2023-05-20T12:36:59;24.90;99.90
15357;DHT22;7778;48.792;9.260;2023-05-20T12:39:44;24.20;99.90
15357;DHT22;7778;48.792;9.260;2023-05-20T12:42:31;24.10;99.90
15357;DHT22;7778;48.792;9.260;2023-05-20T12:45:16;24.30;99.90
15357;DHT22;7778;48.792;9.260;2023-05-20T12:48:04;23.90;99.90
15357;DHT22;7778;48.792;9.260;2023-05-20T12:50:50;24.10;99.90
15357;DHT22;7778;48.792;9.260;2023-05-20T12:53:36;24.30;99.90
15357;DHT22;7778;48.792;9.260;2023-05-20T12:56:21;24.30;99.90
15357;DHT22;7778;48.792;9.260;2023-05-20T12:59:09;24.00;99.90
15357;DHT22;7778;48.792;9.260;2023-05-20T13:01:54;23.60;99.90
15357;DHT22;7778;48.792;9.260;2023-05-20T13:04:42;23.40;99.90
15357;DHT22;7778;48.792;9.260;2023-05-20T13:07:27;23.20;99.90
15357;DHT22;7778;48.792;9.260;2023-05-20T13:10:15;23.40;99.90
15357;DHT22;7778;48.792;9.260;2023-05-20T13:13:01;24.00;99.90
15357;DHT22;7778;48.792;9.260;2023-05-20T13:15:47;24.60;99.90
15357;DHT22;7778;48.792;9.260;2023-05-20T13:18:33;24.40;99.90
15357;DHT22;7778;48.792;9.260;2023-05-20T13:21:20;24.20;99.90
15357;DHT22;7778;48.792;9.260;2023-05-20T13:24:06;24.20;99.90
15357;DHT22;7778;48.792;9.260;2023-05-20T13:26:52;24.00;99.90
15357;DHT22;7778;48.792;9.260;2023-05-20T13:29:37;23.80;99.90
15357;DHT22;7778;48.792;9.260;2023-05-20T13:32:23;23.70;99.90
15357;DHT22;7778;48.792;9.260;2023-05-20T13:35:08;23.50;99.90
15357;DHT22;7778;48.792;9.260;2023-05-20T13:37:57;23.80;99.90
15357;DHT22;7778;48.792;9.260;2023-05-20T13:40:43;23.90;99.90
15357;DHT22;7778;48.792;9.260;2023-05-20T13:43:30;24.10;99.90
15357;DHT22;7778;48.792;9.260;2023-05-20T13:46:16;24.30;99.90
15357;DHT22;7778;48.792;9.260;2023-05-20T13:49:01;24.30;99.90
15357;DHT22;7778;48.792;9.260;2023-05-20T13:51:47;24.20;99.90
15357;DHT22;7778;48.792;9.260;2023-05-20T13:54:34;24.30;99.90
15357;DHT22;7778;48.792;9.260;2023-05-20T13:57:20;24.50;99.90
15357;DHT22;7778;48.792;9.260;2023-05-20T14:00:07;24.50;99.90
15357;DHT22;7778;48.792;9.260;2023-05-20T14:02:54;24.50;99.90
15357;DHT22;7778;48.792;9.260;2023-05-20T14:05:40;24.40;99.90
15357;DHT22;7778;48.792;9.260;2023-05-20T14:08:26;24.40;99.90
15357;DHT22;7778;48.792;9.260;2023-05-20T14:11:13;24.30;99.90
15357;DHT22;7778;48.792;9.260;2023-05-20T14:13:59;24.50;99.90
15357;DHT22;7778;48.792;9.260;2023-05-20T14:16:44;24.60;99.90
15357;DHT22;7778;48.792;9.260;2023-05-20T14:19:30;24.20;99.90
15357;DHT22;7778;48.792;9.260;2023-05-20T14:22:15;23.90;99.90
15357;DHT22;7778;48.792;9.260;2023-05-20T14:25:01;23.50;99.90
15357;DHT22;7778;48.792;9.260;2023-05-20T14:27:49;23.50;99.90
15357;DHT22;7778;48.792;9.260;2023-05-20T14:30:35;23.40;99.90
15357;DHT22;7778;48.792;9.260;2023-05-20T14:33:21;23.40;99.90
15357;DHT22;7778;48.792;9.260;2023-05-20T14:36:07;23.50;99.90
15357;DHT22;7778;48.792;9.260;2023-05-20T14:38:55;23.40;99.90
15357;DHT22;7778;48.792;9.260;2023-05-20T14:41:40;23.50;99.90
15357;DHT22;7778;48.792;9.260;2023-05-20T14:44:28;23.50;99.90
15357;DHT22;7778;48.792;9.260;2023-05-20T14:47:14;23.40;99.90
15357;DHT22;7778;48.792;9.260;2023-05-20T14:50:02;23.30;99.90
15357;DHT22;7778;48.792;9.260;2023-05-20T14:52:48;23.10;99.90
15357;DHT22;7778;48.792;9.260;2023-05-20T14:55:34;23.00;99.90
15357;DHT22;7778;48.792;9.260;2023-05-20T14:58:19;22.90;99.90
15357;DHT22;7778;48.792;9.260;2023-05-20T15:01:06;22.90;99.90
15357;DHT22;7778;48.792;9.260;2023-05-20T15:03:52;22.90;99.90
15357;DHT22;7778;48.792;9.260;2023-05-20T15:06:38;23.00;99.90
15357;DHT22;7778;48.792;9.260;2023-05-20T15:09:23;23.10;99.90
15357;DHT22;7778;48.792;9.260;2023-05-20T15:12:09;23.20;99.90
15357;DHT22;7778;48.792;9.260;2023-05-20T15:14:55;23.20;99.90
15357;DHT22;7778;48.792;9.260;2023-05-20T15:17:42;23.30;99.90
15357;DHT22;7778;48.792;9.260;2023-05-20T15:20:27;23.30;99.90
15357;DHT22;7778;48.792;9.260;2023-05-20T15:23:13;23.30;99.90
15357;DHT22;7778;48.792;9.260;2023-05-20T15:26:00;23.20;99.90
15357;DHT22;7778;48.792;9.260;2023-05-20T15:28:45;23.20;99.90
15357;DHT22;7778;48.792;9.260;2023-05-20T15:31:31;23.30;99.90
15357;DHT22;7778;48.792;9.260;2023-05-20T15:34:18;23.20;99.90
15357;DHT22;7778;48.792;9.260;2023-05-20T15:37:04;23.10;99.90
15357;DHT22;7778;48.792;9.260;2023-05-20T15:39:50;23.10;99.90
15357;DHT22;7778;48.792;9.260;2023-05-20T15:42:35;23.00;99.90
15357;DHT22;7778;48.792;9.260;2023-05-20T15:45:21;23.00;99.90
15357;DHT22;7778;48.792;9.260;2023-05-20T15:48:06;23.10;99.90
15357;DHT22;7778;48.792;9.260;2023-05-20T15:50:53;23.00;99.90
15357;DHT22;7778;48.792;9.260;2023-05-20T15:53:39;23.10;99.90
15357;DHT22;7778;48.792;9.260;2023-05-20T15:56:25;23.20;99.90
15357;DHT22;7778;48.792;9.260;2023-05-20T15:59:10;23.30;99.90
15357;DHT22;7778;48.792;9.260;2023-05-20T16:01:56;23.10;99.90
15357;DHT22;7778;48.792;9.260;2023-05-20T16:04:41;23.20;99.90
15357;DHT22;7778;48.792;9.260;2023-05-20T16:07:31;23.30;99.90
15357;DHT22;7778;48.792;9.260;2023-05-20T16:10:17;23.30;99.90
15357;DHT22;7778;48.792;9.260;2023-05-20T16:13:03;23.30;99.90
15357;DHT22;7778;48.792;9.260;2023-05-20T16:15:48;23.30;99.90
15357;DHT22;7778;48.792;9.260;2023-05-20T16:18:35;23.40;99.90
15357;DHT22;7778;48.792;9.260;2023-05-20T16:21:20;23.60;99.90
15357;DHT22;7778;48.792;9.260;2023-05-20T16:24:09;23.50;99.90
15357;DHT22;7778;48.792;9.260;2023-05-20T16:26:55;23.40;99.90
15357;DHT22;7778;48.792;9.260;2023-05-20T16:29:40;23.30;99.90
15357;DHT22;7778;48.792;9.260;2023-05-20T16:32:26;23.40;99.90
15357;DHT22;7778;48.792;9.260;2023-05-20T16:35:12;23.50;99.90
15357;DHT22;7778;48.792;9.260;2023-05-20T16:37:58;23.60;99.90
15357;DHT22;7778;48.792;9.260;2023-05-20T16:40:45;23.60;99.90
15357;DHT22;7778;48.792;9.260;2023-05-20T16:43:31;23.60;99.90
15357;DHT22;7778;48.792;9.260;2023-05-20T16:46:17;23.70;99.90
15357;DHT22;7778;48.792;9.260;2023-05-20T16:49:02;23.80;99.90
15357;DHT22;7778;48.792;9.260;2023-05-20T16:51:48;23.80;99.90
15357;DHT22;7778;48.792;9.260;2023-05-20T16:54:35;23.80;99.90
15357;DHT22;7778;48.792;9.260;2023-05-20T16:57:22;23.80;99.90
15357;DHT22;7778;48.792;9.260;2023-05-20T17:00:08;23.60;99.90
15357;DHT22;7778;48.792;9.260;2023-05-20T17:02:55;23.50;99.90
15357;DHT22;7778;48.792;9.260;2023-05-20T17:05:41;23.60;99.90
15357;DHT22;7778;48.792;9.260;2023-05-20T17:08:27;23.50;99.90
15357;DHT22;7778;48.792;9.260;2023-05-20T17:11:12;23.50;99.90
15357;DHT22;7778;48.792;9.260;2023-05-20T17:14:00;23.40;99.90
15357;DHT22;7778;48.792;9.260;2023-05-20T17:16:45;23.30;99.90
15357;DHT22;7778;48.792;9.260;2023-05-20T17:19:31;23.20;99.90
15357;DHT22;7778;48.792;9.260;2023-05-20T17:22:16;23.20;99.90
15357;DHT22;7778;48.792;9.260;2023-05-20T17:25:05;23.30;99.90
15357;DHT22;7778;48.792;9.260;2023-05-20T17:28:04;23.20;99.90
15357;DHT22;7778;48.792;9.260;2023-05-20T17:30:53;23.10;99.90
15357;DHT22;7778;48.792;9.260;2023-05-20T17:33:39;22.90;99.90
15357;DHT22;7778;48.792;9.260;2023-05-20T17:36:24;22.70;99.90
15357;DHT22;7778;48.792;9.260;2023-05-20T17:39:17;22.50;99.90
15357;DHT22;7778;48.792;9.260;2023-05-20T17:42:02;22.50;99.90
15357;DHT22;7778;48.792;9.260;2023-05-20T17:44:49;22.40;99.90
15357;DHT22;7778;48.792;9.260;2023-05-20T17:47:36;22.30;99.90
15357;DHT22;7778;48.792;9.260;2023-05-20T17:50:22;22.30;99.90